Time;durP1;ratioP1;P1;durP2;ratioP2;P2;SDS_P1;SDS_P2;PMS_P1;PMS_P2;Temp;Humidity;BMP_temperature;BMP_pressure;BME280_temperature;BME280_humidity;BME280_pressure;Samples;Min_cycle;Max_cycle;Signal;HPM_P1;HPM_P2
2024/01/25 00:00:07;;;;;;;32.72;14.57;;;;;;;17.88;100.00;102273.88;4991072;28;20072;-48
2024/01/25 00:02:33;;;;;;;31.60;14.20;;;;;;;17.88;100.00;102287.94;4989257;28;20054;-47
2024/01/25 00:05:00;;;;;;;29.45;14.45;;;;;;;17.88;100.00;102278.69;4988948;28;20050;-48
2024/01/25 00:07:27;;;;;;;30.02;13.95;;;;;;;17.88;100.00;102287.16;4993591;28;20054;-50
2024/01/25 00:09:53;;;;;;;31.30;14.90;;;;;;;17.86;100.00;102290.41;4994877;28;20053;-44
2024/01/25 00:12:20;;;;;;;33.75;14.18;;;;;;;17.86;100.00;102292.44;4996706;28;20050;-46
2024/01/25 00:14:46;;;;;;;32.17;13.93;;;;;;;17.83;100.00;102288.47;4994415;28;20054;-45
2024/01/25 00:17:13;;;;;;;30.48;13.60;;;;;;;17.84;100.00;102294.88;4997528;28;20045;-44
2024/01/25 00:19:41;;;;;;;34.45;15.00;;;;;;;17.82;100.00;102278.41;4993929;28;20133;-45
2024/01/25 00:22:07;;;;;;;30.30;14.43;;;;;;;17.83;100.00;102284.84;5000066;28;20104;-44
2024/01/25 00:24:34;;;;;;;28.95;13.32;;;;;;;17.84;100.00;102286.41;4997575;28;20060;-45
2024/01/25 00:27:01;;;;;;;29.40;13.48;;;;;;;17.86;100.00;102281.16;4993688;28;20054;-47
2024/01/25 00:29:27;;;;;;;29.08;12.80;;;;;;;17.85;100.00;102279.59;4997342;28;20093;-45
2024/01/25 00:31:54;;;;;;;25.40;11.80;;;;;;;17.84;100.00;102292.03;4994161;28;20125;-45
2024/01/25 00:34:21;;;;;;;25.73;12.70;;;;;;;17.84;100.00;102289.22;4998297;28;20077;-46
2024/01/25 00:36:48;;;;;;;27.65;12.70;;;;;;;17.84;100.00;102290.03;4994444;28;20053;-46
2024/01/25 00:39:14;;;;;;;29.35;12.75;;;;;;;17.82;100.00;102291.69;4994213;28;20073;-47
2024/01/25 00:41:43;;;;;;;27.33;13.73;;;;;;;17.78;100.00;102290.97;4988756;28;20081;-46
2024/01/25 00:44:10;;;;;;;28.55;12.40;;;;;;;17.80;100.00;102289.31;4996511;28;20113;-48
2024/01/25 00:46:37;;;;;;;30.17;13.23;;;;;;;17.81;100.00;102290.09;5000794;28;20129;-46
2024/01/25 00:49:04;;;;;;;28.98;12.70;;;;;;;17.81;100.00;102296.53;4994494;28;20058;-48
2024/01/25 00:51:31;;;;;;;29.30;12.95;;;;;;;17.81;100.00;102302.16;4991805;28;20050;-45
2024/01/25 00:53:58;;;;;;;27.63;12.10;;;;;;;17.80;100.00;102294.13;4989586;28;20056;-45
2024/01/25 00:56:24;;;;;;;29.92;12.95;;;;;;;17.80;100.00;102299.75;4990003;28;20076;-49
2024/01/25 00:58:51;;;;;;;24.02;12.07;;;;;;;17.81;100.00;102296.53;4996244;28;20047;-47
2024/01/25 01:01:22;;;;;;;25.40;11.85;;;;;;;17.82;100.00;102298.09;4994321;28;20076;-45
2024/01/25 01:03:52;;;;;;;25.75;12.05;;;;;;;17.81;100.00;102298.53;4992659;28;20050;-47
2024/01/25 01:06:20;;;;;;;26.15;12.05;;;;;;;17.82;100.00;102302.97;4998717;28;20060;-48
2024/01/25 01:08:47;;;;;;;27.08;12.23;;;;;;;17.81;100.00;102302.16;4992426;28;20141;-48
2024/01/25 01:11:14;;;;;;;28.27;12.25;;;;;;;17.78;100.00;102307.84;5003599;28;20078;-50
2024/01/25 01:13:40;;;;;;;25.63;12.40;;;;;;;17.82;100.00;102297.31;4998893;28;20140;-49
2024/01/25 01:16:07;;;;;;;24.90;11.18;;;;;;;17.80;100.00;102302.56;4995973;28;20109;-47
2024/01/25 01:18:33;;;;;;;28.50;11.52;;;;;;;17.78;100.00;102297.38;5001679;28;20141;-45
2024/01/25 01:21:00;;;;;;;25.52;11.82;;;;;;;17.76;100.00;102294.22;4998720;28;20050;-45
2024/01/25 01:23:27;;;;;;;25.60;12.55;;;;;;;17.75;100.00;102300.28;5005921;28;20067;-47
2024/01/25 01:25:53;;;;;;;23.98;12.20;;;;;;;17.75;100.00;102301.06;5004856;28;20089;-45
2024/01/25 01:28:20;;;;;;;25.08;11.75;;;;;;;17.77;100.00;102304.25;5005330;28;20062;-44
2024/01/25 01:30:46;;;;;;;23.98;11.75;;;;;;;17.77;100.00;102303.44;4994110;28;20046;-45
2024/01/25 01:33:13;;;;;;;26.70;11.82;;;;;;;17.77;100.00;102312.69;5002523;28;20054;-43
2024/01/25 01:35:40;;;;;;;28.17;12.20;;;;;;;17.77;100.00;102323.13;4995372;28;20054;-46
2024/01/25 01:38:07;;;;;;;25.45;11.32;;;;;;;17.77;100.00;102328.75;4997894;28;20056;-45
2024/01/25 01:40:33;;;;;;;24.55;11.30;;;;;;;17.79;100.00;102320.69;4998559;28;20141;-45
2024/01/25 01:43:01;;;;;;;22.70;10.38;;;;;;;17.77;100.00;102320.31;4994837;28;20050;-49
2024/01/25 01:45:28;;;;;;;26.05;11.20;;;;;;;17.76;100.00;102329.97;4997294;28;20057;-49
2024/01/25 01:47:56;;;;;;;26.20;12.05;;;;;;;17.76;100.00;102338.44;4994286;28;20073;-45
2024/01/25 01:50:23;;;;;;;21.75;10.48;;;;;;;17.75;100.00;102337.63;4996960;28;20050;-48
2024/01/25 01:52:51;;;;;;;21.75;10.43;;;;;;;17.75;100.00;102337.63;4994185;28;20058;-45
2024/01/25 01:55:18;;;;;;;22.45;11.05;;;;;;;17.76;100.00;102339.22;4992721;28;20058;-46
2024/01/25 01:57:46;;;;;;;25.10;11.02;;;;;;;17.75;100.00;102336.84;4991544;28;21991;-47
2024/01/25 02:00:16;;;;;;;25.30;11.25;;;;;;;17.74;100.00;102338.03;5001218;28;20047;-49
2024/01/25 02:02:44;;;;;;;23.42;11.00;;;;;;;17.73;100.00;102339.28;4994417;28;20046;-50
2024/01/25 02:05:11;;;;;;;24.13;10.95;;;;;;;17.75;100.00;102339.66;4998365;28;20106;-50
2024/01/25 02:07:40;;;;;;;21.75;10.10;;;;;;;17.75;100.00;102339.66;5001164;28;20481;-45
2024/01/25 02:10:08;;;;;;;20.98;9.85;;;;;;;17.72;100.00;102348.94;4993031;28;20049;-49
2024/01/25 02:12:36;;;;;;;23.95;10.60;;;;;;;17.73;100.00;102348.53;5002372;28;20424;-46
2024/01/25 02:15:03;;;;;;;19.63;9.68;;;;;;;17.69;100.00;102344.16;5001175;28;20487;-47
2024/01/25 02:17:30;;;;;;;20.83;10.23;;;;;;;17.69;100.00;102344.97;4997561;28;20086;-47
2024/01/25 02:19:57;;;;;;;21.42;10.60;;;;;;;17.72;100.00;102348.94;4998443;28;20145;-48
2024/01/25 02:22:23;;;;;;;21.05;9.23;;;;;;;17.71;100.00;102341.72;4994072;28;20046;-45
2024/01/25 02:24:50;;;;;;;22.15;10.77;;;;;;;17.71;100.00;102365.03;5001234;28;20440;-49
2024/01/25 02:27:17;;;;;;;26.67;10.93;;;;;;;17.72;100.00;102357.38;5005533;28;20054;-46
2024/01/25 02:29:43;;;;;;;22.95;10.45;;;;;;;17.72;100.00;102360.97;4994629;28;20572;-45
2024/01/25 02:32:10;;;;;;;21.10;9.10;;;;;;;17.75;100.00;102356.53;4986590;28;20162;-45
2024/01/25 02:34:36;;;;;;;24.10;9.80;;;;;;;17.74;100.00;102357.72;4987779;28;20497;-49
2024/01/25 02:37:03;;;;;;;21.17;9.23;;;;;;;17.75;100.00;102357.31;4995679;28;20097;-48
2024/01/25 02:39:30;;;;;;;22.27;9.68;;;;;;;17.80;100.00;102356.03;4989509;28;20582;-49
2024/01/25 02:41:56;;;;;;;24.52;9.77;;;;;;;17.80;100.00;102358.84;4990104;28;20528;-45
2024/01/25 02:44:23;;;;;;;21.50;9.77;;;;;;;17.79;100.00;102355.22;4990162;28;20093;-46
2024/01/25 02:46:49;;;;;;;22.48;10.10;;;;;;;17.77;100.00;102351.25;4988477;28;20082;-46
2024/01/25 02:49:16;;;;;;;19.70;9.65;;;;;;;17.75;100.00;102354.50;4990296;28;20081;-45
2024/01/25 02:51:43;;;;;;;21.15;9.43;;;;;;;17.75;100.00;102373.41;4989023;28;20133;-46
2024/01/25 02:54:09;;;;;;;21.77;9.05;;;;;;;17.75;100.00;102384.66;4993339;28;20200;-47
2024/01/25 02:56:36;;;;;;;19.80;9.80;;;;;;;17.74;100.00;102378.22;4989675;28;20046;-45
2024/01/25 02:59:02;;;;;;;22.67;10.48;;;;;;;17.74;100.00;102380.25;4989134;28;20056;-44
2024/01/25 03:01:37;;;;;;;22.10;9.13;;;;;;;17.73;100.00;102381.47;4989129;28;20045;-45
2024/01/25 03:04:04;;;;;;;;;;;;;;;17.72;100.00;102393.97;4995096;28;20056;-44
2024/01/25 03:06:31;;;;;;;24.08;9.30;;;;;;;17.72;100.00;102391.16;4988976;28;20737;-46
2024/01/25 03:08:57;;;;;;;19.85;8.80;;;;;;;17.71;100.00;102392.34;4990390;28;20136;-45
2024/01/25 03:11:24;;;;;;;19.38;8.73;;;;;;;17.69;100.00;102394.81;4990331;28;20080;-47
2024/01/25 03:13:50;;;;;;;19.48;8.68;;;;;;;17.69;100.00;102409.69;4994898;28;20133;-49
2024/01/25 03:16:17;;;;;;;20.52;9.75;;;;;;;17.69;100.00;102409.69;4994616;28;20108;-49
2024/01/25 03:18:43;;;;;;;24.27;10.25;;;;;;;17.68;100.00;102405.25;4989121;28;20112;-45
2024/01/25 03:21:10;;;;;;;20.17;9.15;;;;;;;17.68;100.00;102398.84;4987851;28;20058;-45
2024/01/25 03:23:37;;;;;;;19.35;9.27;;;;;;;17.67;100.00;102409.28;4988978;28;20479;-51
2024/01/25 03:26:03;;;;;;;19.08;8.65;;;;;;;17.67;100.00;102416.94;4990431;28;20105;-45
2024/01/25 03:28:30;;;;;;;20.52;8.68;;;;;;;17.67;100.00;102420.53;4991664;28;20757;-50
2024/01/25 03:30:57;;;;;;;19.23;8.70;;;;;;;17.65;100.00;102416.56;4988292;28;20046;-47
2024/01/25 03:33:23;;;;;;;20.63;9.57;;;;;;;17.64;100.00;102420.59;4990089;28;20509;-45
2024/01/25 03:35:50;;;;;;;20.35;9.48;;;;;;;17.63;100.00;102414.19;4987831;28;20750;-45
2024/01/25 03:38:16;;;;;;;17.73;8.25;;;;;;;17.63;100.00;102407.75;4989253;28;20136;-46
2024/01/25 03:40:43;;;;;;;19.75;9.02;;;;;;;17.64;100.00;102412.16;4989979;28;20077;-46
2024/01/25 03:43:11;;;;;;;20.77;9.02;;;;;;;17.62;100.00;102408.97;4990236;28;20065;-46
2024/01/25 03:45:47;;;;;;;19.05;9.05;;;;;;;17.62;100.00;102414.59;4990798;28;20524;-45
2024/01/25 03:48:14;;;;;;;17.55;7.30;;;;;;;17.62;100.00;102408.97;4989143;28;20057;-46
2024/01/25 03:50:41;;;;;;;21.35;9.18;;;;;;;17.62;100.00;102409.75;4993630;28;20429;-48
2024/01/25 03:53:08;;;;;;;20.65;8.63;;;;;;;17.60;100.00;102412.22;4994154;28;20046;-47
2024/01/25 03:55:34;;;;;;;21.80;8.25;;;;;;;17.61;100.00;102410.22;4988297;28;20140;-45
2024/01/25 03:58:01;;;;;;;21.77;8.82;;;;;;;17.59;100.00;102395.78;4987857;28;20121;-47
2024/01/25 04:00:27;;;;;;;19.20;8.57;;;;;;;17.59;100.00;102410.63;4991714;28;20046;-46
2024/01/25 04:02:54;;;;;;;18.63;8.25;;;;;;;17.60;100.00;102402.97;4994208;28;20198;-47
2024/01/25 04:05:21;;;;;;;20.08;8.50;;;;;;;17.58;100.00;102413.88;4991467;28;20136;-48
2024/01/25 04:07:48;;;;;;;18.17;8.48;;;;;;;17.59;100.00;102421.09;4987815;28;20138;-46
2024/01/25 04:10:14;;;;;;;17.98;7.68;;;;;;;17.58;100.00;102422.31;4987486;28;20073;-45
2024/01/25 04:12:41;;;;;;;18.52;8.70;;;;;;;17.59;100.00;102424.69;4983398;28;20046;-49
2024/01/25 04:15:09;;;;;;;19.83;8.40;;;;;;;17.59;100.00;102435.94;4989207;28;20505;-46
2024/01/25 04:17:35;;;;;;;21.35;8.20;;;;;;;17.57;100.00;102429.94;4985772;28;20054;-46
2024/01/25 04:20:02;;;;;;;18.95;7.55;;;;;;;17.59;100.00;102423.91;4988851;28;20084;-46
2024/01/25 04:22:29;;;;;;;18.40;8.18;;;;;;;17.58;100.00;102430.75;4988981;28;20078;-47
2024/01/25 04:24:56;;;;;;;20.17;8.98;;;;;;;17.59;100.00;102435.94;4988711;28;20054;-45
2024/01/25 04:27:23;;;;;;;17.23;7.35;;;;;;;17.59;100.00;102443.59;4990811;28;21001;-44
2024/01/25 04:29:49;;;;;;;20.23;8.30;;;;;;;17.59;100.00;102441.56;4987907;28;20081;-48
2024/01/25 04:32:16;;;;;;;18.38;7.38;;;;;;;17.59;100.00;102450.00;4988802;28;20057;-44
2024/01/25 04:34:44;;;;;;;18.33;8.05;;;;;;;17.60;100.00;102447.97;4987668;28;20046;-45
2024/01/25 04:37:11;;;;;;;19.63;8.13;;;;;;;17.58;100.00;102442.78;4983141;28;20166;-44
2024/01/25 04:39:37;;;;;;;19.52;7.60;;;;;;;17.59;100.00;102449.22;4987438;28;20058;-49
2024/01/25 04:42:04;;;;;;;17.65;7.75;;;;;;;17.57;100.00;102444.00;4989763;28;20046;-46
2024/01/25 04:44:31;;;;;;;17.23;7.68;;;;;;;17.56;100.00;102436.00;4991199;28;20148;-43
2024/01/25 04:46:57;;;;;;;17.10;7.15;;;;;;;17.57;100.00;102441.19;4992109;28;20169;-45
2024/01/25 04:49:24;;;;;;;17.33;7.80;;;;;;;17.56;100.00;102442.41;4996699;28;20050;-46
2024/01/25 04:51:51;;;;;;;17.63;7.53;;;;;;;17.57;100.00;102437.56;4991429;28;20077;-50
2024/01/25 04:54:17;;;;;;;19.23;7.43;;;;;;;17.56;100.00;102438.81;4992754;28;20046;-45
2024/01/25 04:56:44;;;;;;;17.10;7.82;;;;;;;17.54;100.00;102446.84;4991083;28;20142;-46
2024/01/25 04:59:11;;;;;;;16.52;7.00;;;;;;;17.55;100.00;102442.84;4991249;28;20050;-47
2024/01/25 05:01:37;;;;;;;17.65;7.60;;;;;;;17.55;100.00;102431.59;4995005;28;20453;-48
2024/01/25 05:04:04;;;;;;;18.70;7.47;;;;;;;17.56;100.00;102431.16;4996841;28;20043;-44
2024/01/25 05:06:30;;;;;;;20.23;8.00;;;;;;;17.54;100.00;102430.78;4992246;28;20393;-47
2024/01/25 05:08:57;;;;;;;16.73;7.13;;;;;;;17.54;100.00;102435.59;4991430;28;20378;-46
2024/01/25 05:11:23;;;;;;;17.25;7.68;;;;;;;17.53;100.00;102437.63;4995337;28;20050;-45
2024/01/25 05:13:50;;;;;;;18.85;7.82;;;;;;;17.52;100.00;102441.69;4989284;28;20050;-49
2024/01/25 05:16:17;;;;;;;17.67;7.28;;;;;;;17.53;100.00;102443.28;4994058;28;20121;-45
2024/01/25 05:18:44;;;;;;;18.67;7.82;;;;;;;17.52;100.00;102444.50;4991366;28;20556;-44
2024/01/25 05:21:11;;;;;;;19.20;7.90;;;;;;;17.53;100.00;102442.47;4992759;28;20054;-46
2024/01/25 05:23:37;;;;;;;16.67;6.40;;;;;;;17.52;100.00;102436.06;4994193;28;20497;-47
2024/01/25 05:26:05;;;;;;;16.55;6.85;;;;;;;17.51;100.00;102437.25;4986264;28;20050;-49
2024/01/25 05:28:32;;;;;;;16.58;6.80;;;;;;;17.53;100.00;102442.47;4992565;28;20339;-48
2024/01/25 05:30:58;;;;;;;16.10;7.45;;;;;;;17.53;100.00;102436.84;4992934;28;20684;-48
2024/01/25 05:33:28;;;;;;;17.83;7.32;;;;;;;17.51;100.00;102433.66;4991696;28;20092;-45
2024/01/25 05:35:54;;;;;;;15.25;6.80;;;;;;;17.52;100.00;102436.06;4992073;28;20050;-48
2024/01/25 05:38:21;;;;;;;19.10;7.22;;;;;;;17.51;100.00;102442.09;4992097;28;20089;-48
2024/01/25 05:40:47;;;;;;;16.25;7.13;;;;;;;17.51;100.00;102442.09;4995124;28;21634;-45
2024/01/25 05:43:14;;;;;;;20.20;7.53;;;;;;;17.52;100.00;102438.06;4991341;28;20137;-47
2024/01/25 05:45:40;;;;;;;15.65;6.65;;;;;;;17.52;100.00;102443.69;4991736;28;20054;-44
2024/01/25 05:48:07;;;;;;;17.23;6.97;;;;;;;17.52;100.00;102454.94;4992223;28;20421;-49
2024/01/25 05:50:34;;;;;;;16.38;7.15;;;;;;;17.50;100.00;102458.16;4995542;28;20058;-44
2024/01/25 05:53:00;;;;;;;17.88;6.85;;;;;;;17.50;100.00;102465.81;4991737;28;20129;-46
2024/01/25 05:55:27;;;;;;;14.48;6.57;;;;;;;17.49;100.00;102456.59;4990478;28;20109;-45
2024/01/25 05:57:53;;;;;;;17.25;7.75;;;;;;;17.48;100.00;102457.00;4989107;28;20141;-45
2024/01/25 06:00:20;;;;;;;15.75;6.15;;;;;;;17.48;100.00;102457.78;4991362;28;20501;-48
2024/01/25 06:02:47;;;;;;;15.32;6.70;;;;;;;17.49;100.00;102458.59;4991550;28;20046;-49
2024/01/25 06:05:14;;;;;;;16.70;6.68;;;;;;;17.48;100.00;102457.00;4996751;28;20047;-44
2024/01/25 06:07:41;;;;;;;20.20;7.63;;;;;;;17.48;100.00;102457.00;4989921;28;20169;-48
2024/01/25 06:10:08;;;;;;;14.43;5.90;;;;;;;17.48;100.00;102457.00;4992162;28;20093;-47
2024/01/25 06:12:35;;;;;;;13.13;6.10;;;;;;;17.47;100.00;102463.84;4996747;28;20046;-48
2024/01/25 06:15:02;;;;;;;16.15;6.40;;;;;;;17.47;100.00;102461.03;4991045;28;20058;-47
2024/01/25 06:17:28;;;;;;;14.98;6.65;;;;;;;17.47;100.00;102466.66;4988520;28;20070;-46
2024/01/25 06:19:55;;;;;;;18.30;7.10;;;;;;;17.45;100.00;102463.47;4992326;28;20501;-45
2024/01/25 06:22:22;;;;;;;17.40;6.88;;;;;;;17.45;100.00;102464.25;4996013;28;20602;-47
2024/01/25 06:24:48;;;;;;;15.25;6.38;;;;;;;17.47;100.00;102461.03;4989555;28;20066;-44
2024/01/25 06:27:15;;;;;;;16.42;6.32;;;;;;;17.44;100.00;102468.28;4990447;28;20066;-44
2024/01/25 06:29:42;;;;;;;14.77;6.10;;;;;;;17.45;100.00;102466.28;4989677;28;20046;-48
2024/01/25 06:32:10;;;;;;;14.73;6.68;;;;;;;17.45;100.00;102466.28;4989792;28;20050;-44
2024/01/25 06:34:44;;;;;;;15.73;6.45;;;;;;;17.43;100.00;102461.88;4989065;28;20046;-46
2024/01/25 06:37:15;;;;;;;16.30;6.65;;;;;;;17.42;100.00;102468.72;4984707;28;20061;-45
2024/01/25 06:39:42;;;;;;;16.05;6.72;;;;;;;17.43;100.00;102475.91;4988888;28;20574;-48
2024/01/25 06:42:08;;;;;;;15.88;6.25;;;;;;;17.42;100.00;102465.13;4990422;28;20412;-45
2024/01/25 06:44:35;;;;;;;15.48;5.95;;;;;;;17.42;100.00;102478.38;4989844;28;20137;-45
2024/01/25 06:47:01;;;;;;;15.43;6.15;;;;;;;17.42;100.00;102482.78;4988363;28;20481;-45
2024/01/25 06:49:28;;;;;;;15.85;6.45;;;;;;;17.43;100.00;102492.78;4988710;28;20137;-46
2024/01/25 06:51:54;;;;;;;16.35;6.15;;;;;;;17.43;100.00;102492.00;4992895;28;20061;-46
2024/01/25 06:54:21;;;;;;;12.90;5.80;;;;;;;17.43;100.00;102503.25;4990211;28;20480;-45
2024/01/25 06:56:48;;;;;;;16.00;5.85;;;;;;;17.42;100.00;102498.88;4995351;28;20089;-46
2024/01/25 06:59:14;;;;;;;12.65;5.78;;;;;;;17.44;100.00;102502.03;5000847;28;20050;-45
2024/01/25 07:01:41;;;;;;;12.95;5.32;;;;;;;17.44;100.00;102496.41;4988738;28;20511;-46
2024/01/25 07:04:08;;;;;;;14.85;5.93;;;;;;;17.44;100.00;102493.59;4991600;28;20049;-45
2024/01/25 07:06:35;;;;;;;15.80;6.22;;;;;;;17.43;100.00;102495.59;4990341;28;20058;-45
2024/01/25 07:09:02;;;;;;;14.43;5.53;;;;;;;17.44;100.00;102502.03;4990591;28;20057;-45
2024/01/25 07:11:29;;;;;;;15.13;5.75;;;;;;;17.43;100.00;102498.41;4989965;28;20421;-49
2024/01/25 07:13:55;;;;;;;14.20;6.30;;;;;;;17.44;100.00;102499.22;4992946;28;20510;-44
2024/01/25 07:16:23;;;;;;;14.52;5.70;;;;;;;17.44;100.00;102502.03;4992388;28;20054;-47
2024/01/25 07:18:50;;;;;;;13.65;6.00;;;;;;;17.43;100.00;102506.84;4990691;28;20096;-46
2024/01/25 07:21:17;;;;;;;14.02;6.18;;;;;;;17.45;100.00;102519.72;4996096;28;20074;-48
2024/01/25 07:23:43;;;;;;;13.88;5.82;;;;;;;17.43;100.00;102518.09;4989839;28;20151;-44
2024/01/25 07:26:16;;;;;;;16.13;6.10;;;;;;;17.43;100.00;102515.28;4991395;28;20175;-44
2024/01/25 07:28:43;;;;;;;14.90;6.45;;;;;;;17.45;100.00;102516.91;4992570;28;20074;-47
2024/01/25 07:31:09;;;;;;;12.52;5.70;;;;;;;17.43;100.00;102515.28;4990546;28;20163;-46
2024/01/25 07:33:36;;;;;;;12.77;5.32;;;;;;;17.45;100.00;102516.91;4991324;28;20056;-45
2024/01/25 07:36:04;;;;;;;15.25;5.93;;;;;;;17.45;100.00;102519.72;4990184;28;20119;-47
2024/01/25 07:38:30;;;;;;;15.48;5.75;;;;;;;17.45;100.00;102525.34;4992101;28;20132;-47
2024/01/25 07:40:56;;;;;;;15.45;6.40;;;;;;;17.43;100.00;102520.91;4988924;28;20078;-45
2024/01/25 07:43:23;;;;;;;14.48;6.03;;;;;;;17.43;100.00;102518.09;4988546;28;20050;-48
2024/01/25 07:45:50;;;;;;;14.70;6.25;;;;;;;17.43;100.00;102515.28;4994863;28;20049;-46
2024/01/25 07:48:19;;;;;;;14.30;6.05;;;;;;;17.43;100.00;102520.91;4988110;28;20060;-49
2024/01/25 07:50:46;;;;;;;16.30;5.55;;;;;;;17.45;100.00;102525.34;4992369;28;20057;-45
2024/01/25 07:53:14;;;;;;;13.73;6.05;;;;;;;17.46;100.00;102529.75;4989266;28;20096;-45
2024/01/25 07:55:41;;;;;;;14.68;6.05;;;;;;;17.43;100.00;102540.59;4996009;28;20137;-47
2024/01/25 07:58:07;;;;;;;15.82;6.00;;;;;;;17.43;100.00;102543.41;4993697;28;20049;-49
2024/01/25 08:00:34;;;;;;;14.55;6.53;;;;;;;17.45;100.00;102547.84;4989613;28;20436;-49
2024/01/25 08:03:01;;;;;;;13.88;5.15;;;;;;;17.43;100.00;102534.97;4988693;28;20125;-45
2024/01/25 08:05:27;;;;;;;17.33;7.03;;;;;;;17.45;100.00;102539.41;4993252;28;20061;-48
2024/01/25 08:08:10;;;;;;;14.25;5.72;;;;;;;17.43;100.00;102549.03;4994442;28;20046;-50
2024/01/25 08:10:36;;;;;;;14.15;5.63;;;;;;;17.43;100.00;102546.22;4987001;28;20054;-47
2024/01/25 08:13:03;;;;;;;15.02;6.20;;;;;;;17.45;100.00;102540.19;4986061;28;20544;-48
2024/01/25 08:15:33;;;;;;;12.60;5.32;;;;;;;17.46;100.00;102546.59;4983510;28;20065;-49
2024/01/25 08:18:00;;;;;;;13.00;5.20;;;;;;;17.45;100.00;102545.03;4985879;28;20141;-49
2024/01/25 08:20:27;;;;;;;14.05;5.35;;;;;;;17.44;100.00;102544.22;4989194;28;20049;-46
2024/01/25 08:22:55;;;;;;;13.82;5.43;;;;;;;17.42;100.00;102543.84;4988019;28;20125;-46
2024/01/25 08:25:21;;;;;;;16.63;6.30;;;;;;;17.36;100.00;102551.94;4987314;28;20050;-46
2024/01/25 08:27:48;;;;;;;20.30;6.07;;;;;;;17.24;100.00;102549.69;4987013;28;20146;-47
2024/01/25 08:30:15;;;;;;;19.42;6.47;;;;;;;17.27;100.00;102553.66;4988334;28;20544;-45
2024/01/25 08:32:41;;;;;;;21.95;7.82;;;;;;;17.29;100.00;102566.06;4993159;28;20390;-46
2024/01/25 08:35:08;;;;;;;17.92;6.18;;;;;;;17.32;100.00;102561.66;4993296;28;20107;-49
2024/01/25 08:37:37;;;;;;;21.70;6.38;;;;;;;17.31;100.00;102548.78;4990977;28;20096;-48
2024/01/25 08:40:06;;;;;;;26.58;7.47;;;;;;;17.29;100.00;102549.22;4986695;28;20508;-47
2024/01/25 08:42:33;;;;;;;28.40;7.88;;;;;;;17.28;100.00;102547.63;4992544;28;20073;-47
2024/01/25 08:44:59;;;;;;;22.98;6.30;;;;;;;17.33;100.00;102552.81;4989453;28;20058;-46
2024/01/25 08:47:26;;;;;;;24.52;7.20;;;;;;;17.32;100.00;102545.56;4991748;28;20105;-45
2024/01/25 08:49:52;;;;;;;22.25;6.10;;;;;;;17.31;100.00;102538.34;4996730;28;20077;-48
2024/01/25 08:52:19;;;;;;;28.70;6.88;;;;;;;17.30;100.00;102542.41;4992781;28;20049;-49
2024/01/25 08:54:46;;;;;;;20.40;6.20;;;;;;;17.29;100.00;102546.41;4992035;28;20049;-46
2024/01/25 08:57:14;;;;;;;22.17;6.95;;;;;;;17.27;100.00;102554.47;4985391;28;20050;-49
2024/01/25 08:59:41;;;;;;;21.38;6.93;;;;;;;17.27;100.00;102542.41;4987856;28;20468;-51
2024/01/25 09:02:08;;;;;;;24.98;7.50;;;;;;;17.25;100.00;102548.47;4992799;28;20045;-49
2024/01/25 09:04:36;;;;;;;25.65;6.72;;;;;;;17.25;100.00;102547.69;4993254;28;20050;-46
2024/01/25 09:07:03;;;;;;;27.33;7.22;;;;;;;17.25;100.00;102539.25;4985892;28;20057;-48
2024/01/25 09:09:30;;;;;;;23.67;6.32;;;;;;;17.28;100.00;102538.38;4991223;28;20046;-48
2024/01/25 09:11:56;;;;;;;26.80;7.03;;;;;;;17.31;100.00;102535.53;4986053;28;20486;-47
2024/01/25 09:14:23;;;;;;;20.98;6.68;;;;;;;17.31;100.00;102537.56;4987526;28;20069;-46
2024/01/25 09:16:49;;;;;;;18.23;6.50;;;;;;;17.34;100.00;102543.13;4992684;28;20054;-44
2024/01/25 09:19:17;;;;;;;20.38;6.38;;;;;;;17.32;100.00;102545.56;4986922;28;20069;-44
2024/01/25 09:21:43;;;;;;;23.83;6.80;;;;;;;17.33;100.00;102541.56;4989763;28;20056;-45
2024/01/25 09:24:10;;;;;;;20.40;5.68;;;;;;;17.32;100.00;102542.75;4989013;28;20054;-45
2024/01/25 09:26:37;;;;;;;19.40;6.40;;;;;;;17.32;100.00;102539.16;4989012;28;20078;-45
2024/01/25 09:29:04;;;;;;;17.35;5.72;;;;;;;17.33;100.00;102535.94;4988240;28;20049;-48
2024/01/25 09:31:31;;;;;;;20.42;5.90;;;;;;;17.33;100.00;102541.56;4990781;28;20641;-46
2024/01/25 09:33:58;;;;;;;17.75;5.13;;;;;;;17.38;100.00;102549.50;4998067;28;20464;-47
2024/01/25 09:36:25;;;;;;;19.95;5.47;;;;;;;17.36;100.00;102549.13;4997140;28;20140;-45
2024/01/25 09:38:51;;;;;;;21.33;5.60;;;;;;;17.35;100.00;102552.34;4983675;28;20062;-48
2024/01/25 09:41:18;;;;;;;19.55;5.57;;;;;;;17.43;100.00;102549.03;4993219;28;20053;-48
2024/01/25 09:43:45;;;;;;;21.08;6.50;;;;;;;17.49;100.00;102560.63;4994865;28;20531;-45
2024/01/25 09:46:14;;;;;;;20.45;5.53;;;;;;;17.47;100.00;102560.25;4997462;28;20169;-48
2024/01/25 09:48:45;;;;;;;21.65;5.45;;;;;;;17.47;100.00;102567.88;4992426;28;20087;-45
2024/01/25 09:51:13;;;;;;;16.67;5.53;;;;;;;17.49;100.00;102573.88;4999403;28;20053;-46
2024/01/25 09:53:41;;;;;;;21.50;5.88;;;;;;;17.50;100.00;102567.03;4997603;28;20091;-45
2024/01/25 09:56:09;;;;;;;21.13;6.40;;;;;;;17.52;100.00;102575.88;4995265;28;20053;-47
2024/01/25 09:58:38;;;;;;;17.55;5.80;;;;;;;17.49;100.00;102573.88;4988378;28;20057;-49
2024/01/25 10:01:08;;;;;;;18.00;5.63;;;;;;;17.56;100.00;102570.97;4995146;28;20096;-48
2024/01/25 10:03:36;;;;;;;17.20;5.10;;;;;;;17.58;100.00;102579.81;4992870;28;20050;-47
2024/01/25 10:06:05;;;;;;;16.58;5.38;;;;;;;17.60;100.00;102580.16;4993160;28;20062;-43
2024/01/25 10:08:32;;;;;;;16.95;4.68;;;;;;;17.56;100.00;102587.84;4991625;28;20083;-48
2024/01/25 10:10:58;;;;;;;16.55;5.07;;;;;;;17.60;100.00;102599.84;4993768;28;20093;-48
2024/01/25 10:13:27;;;;;;;16.73;5.05;;;;;;;17.61;100.00;102593.03;4996494;28;20084;-46
2024/01/25 10:15:54;;;;;;;17.40;5.13;;;;;;;17.63;100.00;102582.13;4997996;28;20061;-45
2024/01/25 10:18:22;;;;;;;18.10;4.97;;;;;;;17.72;100.00;102588.06;5001254;28;20053;-47
2024/01/25 10:20:55;;;;;;;;;;;;;;;17.65;100.00;102580.50;4999364;28;20054;-47
2024/01/25 10:23:23;;;;;;;26.27;5.38;;;;;;;17.63;100.00;102582.13;5001386;28;19987;-46
2024/01/25 10:25:50;;;;;;;16.70;5.32;;;;;;;17.62;100.00;102581.34;5000587;28;20143;-45
2024/01/25 10:28:17;;;;;;;18.73;4.90;;;;;;;17.58;100.00;102574.97;4998642;28;20061;-46
2024/01/25 10:30:44;;;;;;;14.75;5.00;;;;;;;17.73;100.00;102581.19;4996643;28;20498;-45
2024/01/25 10:33:11;;;;;;;12.50;3.92;;;;;;;17.81;100.00;102582.69;5000891;28;20050;-46
2024/01/25 10:35:41;;;;;;;19.92;5.30;;;;;;;17.77;100.00;102579.13;4991067;28;20054;-47
2024/01/25 10:38:08;;;;;;;18.95;4.82;;;;;;;17.81;100.00;102577.88;4995235;28;20468;-49
2024/01/25 10:40:36;;;;;;;21.10;5.70;;;;;;;17.86;100.00;102585.03;4986377;28;20050;-48
2024/01/25 10:43:03;;;;;;;19.27;5.18;;;;;;;17.87;100.00;102583.81;4997950;28;20436;-48
2024/01/25 10:45:30;;;;;;;17.00;4.55;;;;;;;17.89;100.00;102567.31;4992618;28;20088;-50
2024/01/25 10:47:59;;;;;;;16.50;4.57;;;;;;;17.89;100.00;102556.84;4988628;28;20058;-50
2024/01/25 10:50:26;;;;;;;16.35;4.65;;;;;;;17.79;100.00;102554.97;4991815;28;20416;-46
2024/01/25 10:52:53;;;;;;;15.30;4.65;;;;;;;17.85;100.00;102556.09;4997379;28;20047;-45
2024/01/25 10:55:20;;;;;;;22.70;5.40;;;;;;;17.89;100.00;102550.44;5004339;28;20128;-47
2024/01/25 10:57:47;;;;;;;14.18;4.88;;;;;;;17.91;100.00;102553.59;4995530;28;20046;-47
2024/01/25 11:00:16;;;;;;;20.83;4.63;;;;;;;17.96;100.00;102544.72;4992823;28;20508;-47
2024/01/25 11:02:45;;;;;;;13.45;4.07;;;;;;;17.98;100.00;102539.44;4989761;28;20069;-49
2024/01/25 11:05:13;;;;;;;16.30;4.68;;;;;;;17.96;100.00;102531.44;4996700;28;20080;-45